createdAt,value
2023-05-03T00:02:14.721Z,5.27
2023-05-03T00:05:01.577Z,4.70
2023-05-03T00:07:48.455Z,3.90
2023-05-03T00:10:34.945Z,4.50
2023-05-03T00:13:21.452Z,4.10
2023-05-03T00:16:11.730Z,3.97
2023-05-03T00:18:58.412Z,3.83
2023-05-03T00:21:44.419Z,4.00
2023-05-03T00:24:30.672Z,3.80
2023-05-03T00:27:18.246Z,4.23
2023-05-03T00:30:05.829Z,3.93
2023-05-03T00:32:52.381Z,4.10
2023-05-03T00:35:38.714Z,4.40
2023-05-03T00:38:25.071Z,4.27
2023-05-03T00:41:11.614Z,3.80
2023-05-03T00:43:58.005Z,4.23
2023-05-03T00:46:44.551Z,3.97
2023-05-03T00:49:33.770Z,4.23
2023-05-03T00:52:20.400Z,3.87
2023-05-03T00:55:08.477Z,4.17
2023-05-03T00:57:54.763Z,4.33
2023-05-03T01:00:44.114Z,4.10
2023-05-03T01:03:30.752Z,4.70
2023-05-03T01:06:41.604Z,4.37
2023-05-03T01:10:01.385Z,4.23
2023-05-03T01:13:33.271Z,4.77
2023-05-03T01:16:40.950Z,4.37
2023-05-03T01:19:38.832Z,4.97
2023-05-03T01:22:38.796Z,4.57
2023-05-03T01:25:27.242Z,5.10
2023-05-03T01:28:18.163Z,5.17
2023-05-03T01:31:04.529Z,4.47
2023-05-03T01:34:05.549Z,4.70
2023-05-03T01:36:55.777Z,5.87
2023-05-03T01:40:02.533Z,5.23
2023-05-03T01:42:50.396Z,5.10
2023-05-03T01:45:37.042Z,4.53
2023-05-03T01:48:23.515Z,3.70
2023-05-03T01:51:09.906Z,4.97
2023-05-03T01:53:56.431Z,5.23
2023-05-03T01:56:43.008Z,4.73
2023-05-03T01:59:29.442Z,5.20
2023-05-03T02:02:15.706Z,5.43
2023-05-03T02:05:03.387Z,4.60
2023-05-03T02:07:49.828Z,4.60
2023-05-03T02:10:36.240Z,4.90
2023-05-03T02:13:22.568Z,4.37
2023-05-03T02:16:09.646Z,5.13
2023-05-03T02:19:01.617Z,4.97
2023-05-03T02:21:48.184Z,4.10
2023-05-03T02:24:36.260Z,4.10
2023-05-03T02:27:22.716Z,4.70
2023-05-03T02:30:09.374Z,4.50
2023-05-03T02:33:02.302Z,4.73
2023-05-03T02:35:51.702Z,4.23
2023-05-03T02:38:38.255Z,4.33
2023-05-03T02:41:25.147Z,4.83
2023-05-03T02:44:11.786Z,5.50
2023-05-03T02:46:58.199Z,5.13
2023-05-03T02:49:45.614Z,5.17
2023-05-03T02:52:32.207Z,5.00
2023-05-03T02:55:18.944Z,4.70
2023-05-03T02:58:06.541Z,4.67
2023-05-03T03:00:53.086Z,4.90
2023-05-03T03:03:39.422Z,4.80
2023-05-03T03:06:26.127Z,4.47
2023-05-03T03:09:12.983Z,4.47
2023-05-03T03:12:03.508Z,3.90
2023-05-03T03:14:49.832Z,4.77
2023-05-03T03:17:39.391Z,4.60
2023-05-03T03:20:29.186Z,4.07
2023-05-03T03:23:19.584Z,4.83
2023-05-03T03:26:06.985Z,4.80
2023-05-03T03:28:53.751Z,5.63
2023-05-03T03:31:40.818Z,5.23
2023-05-03T03:34:27.752Z,4.20
2023-05-03T03:37:14.633Z,4.63
2023-05-03T03:40:02.490Z,4.87
2023-05-03T03:42:50.081Z,4.90
2023-05-03T03:45:36.600Z,5.00
2023-05-03T03:48:23.321Z,4.93
2023-05-03T03:51:09.731Z,4.63
2023-05-03T03:54:02.296Z,5.07
2023-05-03T03:56:53.743Z,4.93
2023-05-03T03:59:41.043Z,4.20
2023-05-03T04:02:28.017Z,4.90
2023-05-03T04:05:15.044Z,4.27
2023-05-03T04:08:02.554Z,5.40
2023-05-03T04:10:51.470Z,4.80
2023-05-03T04:13:39.077Z,5.33
2023-05-03T04:16:25.659Z,4.63
2023-05-03T04:19:14.017Z,5.10
2023-05-03T04:22:01.825Z,5.43
2023-05-03T04:24:48.722Z,4.70
2023-05-03T04:27:35.354Z,5.27
2023-05-03T04:30:21.989Z,5.27
2023-05-03T04:33:12.583Z,3.90
2023-05-03T04:36:01.192Z,5.00
2023-05-03T04:38:48.311Z,5.27
2023-05-03T04:41:34.889Z,5.20
2023-05-03T04:44:22.329Z,4.20
2023-05-03T04:47:10.785Z,4.30
2023-05-03T04:49:57.552Z,5.13
2023-05-03T04:52:45.042Z,5.00
2023-05-03T04:55:32.610Z,5.33
2023-05-03T04:58:19.132Z,4.73
2023-05-03T05:01:07.332Z,3.97
2023-05-03T05:03:54.288Z,4.30
2023-05-03T05:06:48.360Z,4.03
2023-05-03T05:09:39.932Z,3.53
2023-05-03T05:12:27.117Z,3.97
2023-05-03T05:15:13.828Z,3.47
2023-05-03T05:18:00.816Z,3.63
2023-05-03T05:20:47.252Z,3.70
2023-05-03T05:23:34.027Z,3.73
2023-05-03T05:26:20.395Z,3.60
2023-05-03T05:29:07.148Z,4.07
2023-05-03T05:31:53.993Z,4.03
2023-05-03T05:34:44.975Z,4.40
2023-05-03T05:37:33.030Z,4.33
2023-05-03T05:40:22.485Z,4.77
2023-05-03T05:43:14.092Z,5.40
2023-05-03T05:46:04.298Z,5.73
2023-05-03T05:48:52.341Z,4.97
2023-05-03T05:51:39.451Z,5.70
2023-05-03T05:54:26.685Z,5.60
2023-05-03T05:57:14.567Z,4.97
2023-05-03T06:00:01.635Z,5.30
2023-05-03T06:02:49.538Z,5.70
2023-05-03T06:05:39.693Z,5.33
2023-05-03T06:08:28.799Z,5.03
2023-05-03T06:11:15.306Z,5.50
2023-05-03T06:14:09.421Z,5.80
2023-05-03T06:16:59.859Z,5.40
2023-05-03T06:19:48.705Z,5.13
2023-05-03T06:22:34.900Z,5.50
2023-05-03T06:25:21.592Z,5.90
2023-05-03T06:28:09.687Z,5.40
2023-05-03T06:30:56.416Z,6.30
2023-05-03T06:33:43.016Z,7.20
2023-05-03T06:36:31.094Z,5.77
2023-05-03T06:39:18.063Z,5.17
2023-05-03T06:42:05.556Z,6.00
2023-05-03T06:44:56.596Z,6.40
2023-05-03T06:47:43.297Z,5.80
2023-05-03T06:50:29.775Z,5.77
2023-05-03T06:53:16.218Z,6.47
2023-05-03T06:56:03.671Z,5.67
2023-05-03T06:58:50.604Z,5.73
2023-05-03T07:01:37.071Z,6.23
2023-05-03T07:04:23.564Z,5.37
2023-05-03T07:07:10.084Z,5.77
2023-05-03T07:09:56.678Z,6.47
2023-05-03T07:12:42.959Z,5.77
2023-05-03T07:15:30.015Z,5.60
2023-05-03T07:18:16.661Z,5.10
2023-05-03T07:21:07.253Z,5.93
2023-05-03T07:23:55.415Z,5.63
2023-05-03T07:26:43.785Z,6.20
2023-05-03T07:29:31.023Z,5.00
2023-05-03T07:32:17.297Z,5.40
2023-05-03T07:35:04.319Z,5.70
2023-05-03T07:37:50.692Z,6.17
2023-05-03T07:40:37.200Z,5.60
2023-05-03T07:43:23.661Z,6.27
2023-05-03T07:46:10.452Z,5.40
2023-05-03T07:48:58.400Z,5.73
2023-05-03T07:51:44.578Z,5.43
2023-05-03T07:54:31.185Z,5.20
2023-05-03T07:57:17.961Z,5.60
2023-05-03T08:00:06.170Z,5.50
2023-05-03T08:02:58.717Z,5.37
2023-05-03T08:05:46.503Z,5.53
2023-05-03T08:08:33.966Z,5.50
2023-05-03T08:11:20.308Z,6.07
2023-05-03T08:14:06.673Z,5.53
2023-05-03T08:16:52.932Z,5.73
2023-05-03T08:19:39.266Z,5.63
2023-05-03T08:22:26.860Z,5.50
2023-05-03T08:25:13.601Z,5.83
2023-05-03T08:28:00.003Z,6.20
2023-05-03T08:30:46.342Z,5.70
2023-05-03T08:33:33.221Z,5.57
2023-05-03T08:36:19.722Z,5.47
2023-05-03T08:39:06.881Z,6.20
2023-05-03T08:41:56.348Z,6.20
2023-05-03T08:44:48.517Z,6.70
2023-05-03T08:47:37.493Z,5.90
2023-05-03T08:50:25.380Z,6.37
2023-05-03T08:53:11.962Z,5.60
2023-05-03T08:55:58.357Z,6.07
2023-05-03T08:58:44.816Z,5.90
2023-05-03T09:01:31.430Z,5.80
2023-05-03T09:04:17.901Z,5.83
2023-05-03T09:07:08.787Z,5.50
2023-05-03T09:09:57.148Z,5.87
2023-05-03T09:12:45.593Z,6.57
2023-05-03T09:15:32.596Z,5.70
2023-05-03T09:18:20.495Z,6.20
2023-05-03T09:21:06.745Z,6.07
2023-05-03T09:23:53.386Z,6.23
2023-05-03T09:26:40.877Z,6.07
2023-05-03T09:29:32.087Z,6.10
2023-05-03T09:32:19.111Z,5.90
2023-05-03T09:35:10.098Z,5.93
2023-05-03T09:37:56.760Z,6.47
2023-05-03T09:40:48.084Z,5.83
2023-05-03T09:43:38.158Z,5.63
2023-05-03T09:46:25.601Z,6.20
2023-05-03T09:49:12.002Z,5.70
2023-05-03T09:52:00.272Z,5.63
2023-05-03T09:54:47.175Z,5.73
2023-05-03T09:57:33.687Z,6.37
2023-05-03T10:00:20.686Z,5.47
2023-05-03T10:03:09.578Z,5.43
2023-05-03T10:05:56.204Z,5.90
2023-05-03T10:08:53.124Z,6.70
2023-05-03T10:11:43.262Z,5.97
2023-05-03T10:14:29.788Z,6.37
2023-05-03T10:17:46.324Z,5.93
2023-05-03T10:20:55.303Z,5.43
2023-05-03T10:24:15.962Z,5.60
2023-05-03T10:27:03.074Z,5.20
2023-05-03T10:29:51.892Z,5.53
2023-05-03T10:32:43.150Z,7.20
2023-05-03T10:35:30.097Z,6.43
2023-05-03T10:38:19.799Z,6.73
2023-05-03T10:41:07.052Z,6.63
2023-05-03T10:43:53.360Z,6.33
2023-05-03T10:46:39.641Z,5.63
2023-05-03T10:49:26.540Z,5.10
2023-05-03T10:52:35.108Z,5.57
2023-05-03T10:55:25.090Z,6.00
2023-05-03T10:58:15.116Z,6.60
2023-05-03T11:01:04.667Z,5.27
2023-05-03T11:04:13.830Z,5.57
2023-05-03T11:07:01.350Z,5.43
2023-05-03T11:09:48.154Z,6.40
2023-05-03T11:12:34.815Z,6.70
2023-05-03T11:15:21.206Z,6.33
2023-05-03T11:18:08.791Z,5.87
2023-05-03T11:20:55.917Z,5.47
2023-05-03T11:23:43.313Z,5.43
2023-05-03T11:26:35.726Z,4.70
2023-05-03T11:29:24.717Z,5.70
2023-05-03T11:32:11.703Z,4.83
2023-05-03T11:34:59.175Z,5.47
2023-05-03T11:37:45.397Z,4.90
2023-05-03T11:40:32.097Z,4.73
2023-05-03T11:43:18.700Z,4.20
2023-05-03T11:46:05.707Z,4.20
2023-05-03T11:48:52.442Z,4.13
2023-05-03T11:51:39.559Z,5.13
2023-05-03T11:54:28.299Z,4.40
2023-05-03T11:57:16.206Z,4.37
2023-05-03T12:00:14.594Z,4.53
2023-05-03T12:03:01.396Z,4.47
2023-05-03T12:05:49.751Z,4.13
2023-05-03T12:08:38.154Z,3.77
2023-05-03T12:11:28.136Z,4.40
2023-05-03T12:14:17.550Z,3.77
2023-05-03T12:17:04.015Z,3.60
2023-05-03T12:19:53.909Z,3.83
2023-05-03T12:22:43.674Z,3.70
2023-05-03T12:25:33.823Z,4.40
2023-05-03T12:28:21.533Z,4.53
2023-05-03T12:31:08.105Z,4.53
2023-05-03T12:34:12.526Z,4.90
2023-05-03T12:37:04.869Z,4.93
2023-05-03T12:40:00.930Z,4.33
2023-05-03T12:42:57.692Z,5.10
2023-05-03T12:45:48.159Z,5.00
2023-05-03T12:48:39.924Z,5.07
2023-05-03T12:51:27.783Z,5.00
2023-05-03T12:54:18.563Z,4.93
2023-05-03T12:57:09.142Z,4.43
2023-05-03T13:00:03.221Z,5.10
2023-05-03T13:05:40.842Z,4.33
2023-05-03T13:08:34.056Z,4.00
2023-05-03T13:11:22.062Z,3.73
2023-05-03T13:14:08.964Z,4.00
2023-05-03T13:16:55.838Z,3.73
2023-05-03T13:19:47.285Z,3.13
2023-05-03T13:22:33.969Z,4.80
2023-05-03T13:25:21.018Z,4.20
2023-05-03T13:28:07.672Z,4.53
2023-05-03T13:30:54.405Z,4.40
2023-05-03T13:33:41.501Z,4.13
2023-05-03T13:36:29.425Z,4.00
2023-05-03T13:39:15.768Z,3.83
2023-05-03T13:42:02.306Z,3.60
2023-05-03T13:44:48.538Z,3.87
2023-05-03T13:48:04.352Z,3.33
2023-05-03T13:50:41.726Z,3.70
2023-05-03T13:53:28.073Z,3.37
2023-05-03T13:56:14.996Z,3.33
2023-05-03T13:59:02.005Z,4.40
2023-05-03T14:01:48.592Z,3.93
2023-05-03T14:04:35.166Z,3.77
2023-05-03T14:07:21.586Z,4.33
2023-05-03T14:10:09.094Z,3.43
2023-05-03T14:12:57.886Z,3.50
2023-05-03T14:15:45.288Z,3.47
2023-05-03T14:18:31.992Z,3.40
2023-05-03T14:21:19.660Z,3.40
2023-05-03T14:24:06.657Z,4.20
2023-05-03T14:26:53.257Z,4.67
2023-05-03T14:29:39.980Z,3.60
2023-05-03T14:32:27.046Z,4.13
2023-05-03T14:35:15.022Z,4.53
2023-05-03T14:38:01.158Z,3.50
2023-05-03T14:40:47.447Z,3.50
2023-05-03T14:43:33.709Z,3.33
2023-05-03T14:46:19.950Z,3.90
2023-05-03T14:49:07.076Z,3.70
2023-05-03T14:51:53.358Z,3.30
2023-05-03T14:54:39.654Z,2.80
2023-05-03T14:57:26.086Z,3.00
2023-05-03T15:00:17.662Z,3.40
2023-05-03T15:03:05.130Z,4.07
2023-05-03T15:05:51.685Z,4.40
2023-05-03T15:08:39.317Z,3.30
2023-05-03T15:11:27.752Z,3.30
2023-05-03T15:14:14.082Z,4.10
2023-05-03T15:17:00.795Z,4.30
2023-05-03T15:19:47.763Z,3.43
2023-05-03T15:22:36.117Z,3.90
2023-05-03T15:25:23.101Z,3.50
2023-05-03T15:28:09.313Z,3.00
2023-05-03T15:30:55.811Z,3.10
2023-05-03T15:33:43.430Z,3.30
2023-05-03T15:36:29.863Z,3.10
2023-05-03T15:39:16.238Z,3.00
2023-05-03T15:42:02.469Z,4.23
2023-05-03T15:44:49.687Z,3.00
2023-05-03T15:47:36.339Z,2.80
2023-05-03T15:50:22.992Z,3.00
2023-05-03T15:53:09.297Z,3.63
2023-05-03T15:55:58.714Z,2.90
2023-05-03T15:58:45.447Z,3.00
2023-05-03T16:01:32.067Z,3.23
2023-05-03T16:04:18.399Z,3.10
2023-05-03T16:07:05.106Z,3.43
2023-05-03T16:09:51.769Z,3.37
2023-05-03T16:12:38.300Z,3.27
2023-05-03T16:15:24.847Z,2.73
2023-05-03T16:18:11.677Z,2.63
2023-05-03T16:20:58.447Z,2.83
2023-05-03T16:23:48.821Z,2.77
2023-05-03T16:26:35.496Z,3.00
2023-05-03T16:29:22.062Z,3.37
2023-05-03T16:32:09.818Z,3.10
2023-05-03T16:34:56.812Z,3.03
2023-05-03T16:37:43.106Z,3.17
2023-05-03T16:40:29.764Z,3.00
2023-05-03T16:43:18.298Z,2.93
2023-05-03T16:46:04.534Z,2.70
2023-05-03T16:48:51.846Z,2.80
2023-05-03T16:51:39.592Z,3.40
2023-05-03T16:54:26.527Z,3.70
2023-05-03T16:57:13.152Z,3.70
2023-05-03T17:00:03.269Z,3.30
2023-05-03T17:02:51.260Z,3.20
2023-05-03T17:05:37.899Z,3.60
2023-05-03T17:08:24.229Z,3.20
2023-05-03T17:11:13.514Z,3.37
2023-05-03T17:14:02.599Z,3.13
2023-05-03T17:16:49.371Z,13.83
2023-05-03T17:19:35.878Z,3.33
2023-05-03T17:22:22.529Z,2.80
2023-05-03T17:25:09.651Z,3.00
2023-05-03T17:27:56.465Z,3.37
2023-05-03T17:30:42.735Z,3.57
2023-05-03T17:33:29.384Z,2.93
2023-05-03T17:36:15.605Z,2.90
2023-05-03T17:39:02.358Z,3.47
2023-05-03T17:41:48.837Z,3.40
2023-05-03T17:44:35.086Z,3.20
2023-05-03T17:47:25.132Z,2.70
2023-05-03T17:50:12.929Z,3.53
2023-05-03T17:53:00.111Z,3.80
2023-05-03T17:55:46.301Z,2.70
2023-05-03T17:58:32.725Z,2.83
2023-05-03T18:01:24.341Z,2.30
2023-05-03T18:04:10.847Z,3.63
2023-05-03T18:06:57.132Z,2.93
2023-05-03T18:09:43.685Z,2.90
2023-05-03T18:12:30.268Z,2.73
2023-05-03T18:15:17.701Z,3.00
2023-05-03T18:18:04.600Z,2.77
2023-05-03T18:20:59.430Z,2.53
2023-05-03T18:23:46.048Z,2.77
2023-05-03T18:26:32.517Z,2.93
2023-05-03T18:29:18.663Z,3.40
2023-05-03T18:32:05.743Z,3.00
2023-05-03T18:34:52.048Z,2.50
2023-05-03T18:37:38.296Z,2.87
2023-05-03T18:40:25.107Z,2.70
2023-05-03T18:43:11.937Z,3.20
2023-05-03T18:45:58.597Z,4.10
2023-05-03T18:48:46.111Z,2.93
2023-05-03T18:51:32.586Z,3.10
2023-05-03T18:54:20.325Z,2.87
2023-05-03T18:57:06.825Z,2.87
2023-05-03T19:00:00.725Z,2.83
2023-05-03T19:02:50.573Z,2.80
2023-05-03T19:05:37.341Z,3.30
2023-05-03T19:08:24.017Z,2.80
2023-05-03T19:11:12.783Z,2.40
2023-05-03T19:14:00.467Z,3.10
2023-05-03T19:16:46.836Z,3.10
2023-05-03T19:19:33.530Z,2.43
2023-05-03T19:22:19.944Z,2.60
2023-05-03T19:25:06.747Z,2.67
2023-05-03T19:27:52.886Z,2.87
2023-05-03T19:30:41.301Z,2.57
2023-05-03T19:33:28.099Z,3.03
2023-05-03T19:36:14.990Z,2.60
2023-05-03T19:39:03.440Z,3.30
2023-05-03T19:41:52.932Z,2.27
2023-05-03T19:44:39.278Z,2.70
2023-05-03T19:47:25.552Z,2.87
2023-05-03T19:50:12.547Z,2.77
2023-05-03T19:52:59.114Z,3.00
2023-05-03T19:55:59.330Z,3.27
2023-05-03T19:58:46.343Z,4.00
2023-05-03T20:01:32.692Z,2.70
2023-05-03T20:04:19.354Z,2.97
2023-05-03T20:07:05.888Z,3.03
2023-05-03T20:09:52.371Z,2.80
2023-05-03T20:12:38.631Z,3.53
2023-05-03T20:15:24.931Z,2.90
2023-05-03T20:18:11.356Z,3.07
2023-05-03T20:20:57.481Z,3.60
2023-05-03T20:23:43.960Z,3.50
2023-05-03T20:26:30.476Z,3.37
2023-05-03T20:29:16.757Z,3.37
2023-05-03T20:32:03.302Z,4.10
2023-05-03T20:34:49.916Z,3.70
2023-05-03T20:37:38.550Z,4.33
2023-05-03T20:40:25.049Z,5.67
2023-05-03T20:43:11.784Z,4.43
2023-05-03T20:45:58.631Z,4.57
2023-05-03T20:48:45.283Z,4.20
2023-05-03T20:51:34.412Z,4.00
2023-05-03T20:54:20.995Z,4.00
2023-05-03T20:57:12.205Z,3.87
2023-05-03T20:59:59.950Z,4.43
2023-05-03T21:02:49.859Z,3.97
2023-05-03T21:05:36.174Z,5.73
2023-05-03T21:08:23.431Z,4.90
2023-05-03T21:11:09.797Z,4.17
2023-05-03T21:13:56.336Z,4.20
2023-05-03T21:16:42.664Z,4.40
2023-05-03T21:19:29.359Z,3.63
2023-05-03T21:22:15.983Z,4.10
2023-05-03T21:25:02.405Z,4.07
2023-05-03T21:27:49.103Z,4.33
2023-05-03T21:30:35.410Z,4.23
2023-05-03T21:33:21.843Z,4.10
2023-05-03T21:36:08.675Z,4.37
2023-05-03T21:38:55.198Z,4.97
2023-05-03T21:41:43.555Z,4.27
2023-05-03T21:44:30.291Z,4.47
2023-05-03T21:47:16.780Z,3.97
2023-05-03T21:50:05.999Z,4.07
2023-05-03T21:52:52.927Z,3.93
2023-05-03T21:55:39.199Z,5.07
2023-05-03T21:58:26.061Z,4.60
2023-05-03T22:01:12.959Z,5.00
2023-05-03T22:03:59.813Z,4.50
2023-05-03T22:06:46.997Z,5.00
2023-05-03T22:09:33.584Z,4.87
2023-05-03T22:12:24.094Z,5.30
2023-05-03T22:15:11.393Z,5.57
2023-05-03T22:17:57.832Z,5.77
2023-05-03T22:20:44.010Z,4.63
2023-05-03T22:23:30.987Z,4.97
2023-05-03T22:26:17.501Z,5.00
2023-05-03T22:29:03.615Z,5.40
2023-05-03T22:31:51.687Z,5.03
2023-05-03T22:34:38.264Z,5.17
2023-05-03T22:37:24.909Z,4.80
2023-05-03T22:40:11.998Z,5.03
2023-05-03T22:42:58.464Z,4.97
2023-05-03T22:45:44.987Z,5.70
2023-05-03T22:48:32.717Z,5.43
2023-05-03T22:51:19.602Z,6.40
2023-05-03T22:54:06.176Z,5.63
2023-05-03T22:56:52.542Z,5.40
2023-05-03T22:59:38.912Z,5.40
2023-05-03T23:02:25.294Z,5.37
2023-05-03T23:05:12.042Z,4.73
2023-05-03T23:07:58.489Z,5.40
2023-05-03T23:10:45.534Z,4.83
2023-05-03T23:13:31.708Z,5.10
2023-05-03T23:16:18.255Z,5.23
2023-05-03T23:19:04.819Z,5.47
2023-05-03T23:21:51.350Z,5.70
2023-05-03T23:24:39.409Z,6.23
2023-05-03T23:27:26.137Z,6.33
2023-05-03T23:30:13.824Z,5.87
2023-05-03T23:33:00.779Z,5.40
2023-05-03T23:35:48.675Z,5.90
2023-05-03T23:38:35.448Z,4.90
2023-05-03T23:41:21.741Z,5.50
2023-05-03T23:44:08.489Z,5.03
2023-05-03T23:46:54.946Z,5.10
2023-05-03T23:49:41.560Z,5.50
2023-05-03T23:52:27.725Z,5.20
2023-05-03T23:55:14.211Z,5.70
2023-05-03T23:58:00.512Z,6.70
